createdAt,value
2023-03-06T00:00:00.300Z,2.5
2023-03-06T00:15:00.388Z,2.4
2023-03-06T00:30:00.314Z,2.3
2023-03-06T00:45:00.336Z,2.2
2023-03-06T01:00:00.322Z,2.1
2023-03-06T01:15:00.369Z,2.0
2023-03-06T01:30:00.313Z,1.9
2023-03-06T01:45:00.325Z,1.8
2023-03-06T02:00:00.319Z,1.8
2023-03-06T02:15:00.362Z,1.7
2023-03-06T02:30:00.319Z,1.6
2023-03-06T02:45:00.326Z,1.5
2023-03-06T03:00:00.311Z,1.5
2023-03-06T03:15:00.349Z,1.5
2023-03-06T03:30:00.337Z,1.6
2023-03-06T03:45:00.316Z,1.6
2023-03-06T04:00:00.319Z,1.6
2023-03-06T04:15:00.376Z,1.6
2023-03-06T04:30:00.354Z,1.5
2023-03-06T04:45:00.337Z,1.6
2023-03-06T05:00:00.306Z,1.6
2023-03-06T05:15:00.364Z,1.6
2023-03-06T05:30:00.308Z,1.6
2023-03-06T05:45:00.326Z,1.6
2023-03-06T06:00:00.317Z,1.6
2023-03-06T06:15:00.384Z,1.6
2023-03-06T06:30:00.321Z,1.6
2023-03-06T06:45:00.423Z,1.8
2023-03-06T07:00:00.293Z,1.9
2023-03-06T07:15:00.364Z,2.0
2023-03-06T07:30:00.309Z,2.2
2023-03-06T07:45:00.314Z,2.4
2023-03-06T08:00:00.346Z,2.9
2023-03-06T08:15:00.383Z,3.2
2023-03-06T08:30:00.296Z,3.5
2023-03-06T08:45:00.315Z,3.8
2023-03-06T09:00:00.319Z,4.2
2023-03-06T09:15:00.321Z,4.3
2023-03-06T09:30:00.366Z,4.6
2023-03-06T09:45:00.300Z,4.7
2023-03-06T10:00:02.890Z,5.0
2023-03-06T10:15:00.325Z,5.1
2023-03-06T10:30:03.496Z,5.3
2023-03-06T10:45:00.315Z,5.6
2023-03-06T11:00:00.331Z,5.8
2023-03-06T11:15:00.321Z,5.9
2023-03-06T11:30:00.340Z,6.2
2023-03-06T11:45:00.797Z,6.3
2023-03-06T12:00:00.391Z,6.4
2023-03-06T12:15:00.516Z,6.5
2023-03-06T12:30:00.370Z,6.7
2023-03-06T12:45:00.406Z,6.7
2023-03-06T13:00:00.336Z,6.8
2023-03-06T13:15:00.337Z,6.7
2023-03-06T13:30:00.395Z,6.7
2023-03-06T13:45:00.317Z,6.7
2023-03-06T14:00:08.500Z,6.8
2023-03-06T14:15:00.307Z,6.8
2023-03-06T14:30:00.360Z,6.8
2023-03-06T14:45:00.325Z,6.7
2023-03-06T15:00:00.325Z,6.7
2023-03-06T15:15:00.296Z,6.7
2023-03-06T15:30:00.431Z,6.6
2023-03-06T15:45:00.294Z,6.7
2023-03-06T16:00:00.345Z,6.7
2023-03-06T16:15:00.287Z,6.6
2023-03-06T16:30:00.377Z,6.4
2023-03-06T16:45:00.327Z,6.3
2023-03-06T17:00:00.341Z,6.2
2023-03-06T17:15:00.346Z,6.0
2023-03-06T17:30:00.636Z,5.9
2023-03-06T17:45:00.370Z,5.6
2023-03-06T18:00:00.356Z,5.5
2023-03-06T18:15:00.315Z,5.3
2023-03-06T18:30:00.379Z,5.2
2023-03-06T18:45:01.379Z,5.1
2023-03-06T19:00:00.330Z,4.9
2023-03-06T19:15:00.330Z,4.8
2023-03-06T19:30:00.386Z,4.6
2023-03-06T19:45:00.395Z,4.4
2023-03-06T20:00:00.334Z,4.4
2023-03-06T20:15:00.367Z,4.2
2023-03-06T20:30:00.398Z,4.2
2023-03-06T20:45:00.363Z,4.1
2023-03-06T21:00:00.339Z,4.1
2023-03-06T21:15:00.337Z,4.0
2023-03-06T21:30:00.428Z,4.0
2023-03-06T21:45:00.338Z,4.0
2023-03-06T22:00:00.317Z,3.9
2023-03-06T22:15:00.331Z,3.8
2023-03-06T22:30:00.364Z,3.8
2023-03-06T22:45:00.329Z,3.8
2023-03-06T23:00:00.381Z,3.8
2023-03-06T23:15:00.401Z,3.6
2023-03-06T23:30:00.357Z,3.6
2023-03-06T23:45:00.319Z,3.6
